createdAt,value
2019-01-09T00:01:26.953Z,23.53
2019-01-09T00:03:53.884Z,24.20
2019-01-09T00:06:20.504Z,22.07
2019-01-09T00:08:51.380Z,27.07
2019-01-09T00:11:17.973Z,20.70
2019-01-09T00:13:46.224Z,22.53
2019-01-09T00:16:18.902Z,21.95
2019-01-09T00:18:45.509Z,26.53
2019-01-09T00:21:14.070Z,21.86
2019-01-09T00:23:40.706Z,19.57
2019-01-09T00:26:07.850Z,21.97
2019-01-09T00:28:35.114Z,25.03
2019-01-09T00:31:01.770Z,21.87
2019-01-09T00:33:28.718Z,21.07
2019-01-09T00:35:56.723Z,18.77
2019-01-09T00:38:23.307Z,19.50
2019-01-09T00:40:51.133Z,17.83
2019-01-09T00:43:17.897Z,21.17
2019-01-09T00:45:44.910Z,18.13
2019-01-09T00:48:11.524Z,19.60
2019-01-09T00:50:38.145Z,19.40
2019-01-09T00:53:04.842Z,17.20
2019-01-09T00:55:31.777Z,20.27
2019-01-09T00:57:58.698Z,20.17
2019-01-09T01:00:25.326Z,18.67
2019-01-09T01:02:54.158Z,17.70
2019-01-09T01:05:20.782Z,17.73
2019-01-09T01:07:47.492Z,17.00
2019-01-09T01:10:14.667Z,19.27
2019-01-09T01:12:41.621Z,19.23
2019-01-09T01:15:08.570Z,15.20
2019-01-09T01:17:37.351Z,15.23
2019-01-09T01:20:04.004Z,18.43
2019-01-09T01:22:30.677Z,15.43
2019-01-09T01:24:57.337Z,17.03
2019-01-09T01:27:24.011Z,16.97
2019-01-09T01:29:50.776Z,15.73
2019-01-09T01:32:22.877Z,15.15
2019-01-09T01:34:49.840Z,13.95
2019-01-09T01:37:17.182Z,15.53
2019-01-09T01:39:43.805Z,13.03
2019-01-09T01:42:11.709Z,13.45
2019-01-09T01:44:41.560Z,13.20
2019-01-09T01:47:08.245Z,15.43
2019-01-09T01:49:34.989Z,14.20
2019-01-09T01:52:03.631Z,14.47
2019-01-09T01:54:30.276Z,14.30
2019-01-09T01:56:56.904Z,13.43
2019-01-09T01:59:24.251Z,14.90
2019-01-09T02:01:51.535Z,18.43
2019-01-09T02:04:18.748Z,18.63
2019-01-09T02:06:45.367Z,17.42
2019-01-09T02:09:12.305Z,16.93
2019-01-09T02:11:39.280Z,17.03
2019-01-09T02:14:06.164Z,15.83
2019-01-09T02:16:33.074Z,14.73
2019-01-09T02:18:59.712Z,16.40
2019-01-09T02:21:26.376Z,13.20
2019-01-09T02:23:53.245Z,15.40
2019-01-09T02:26:20.175Z,14.28
2019-01-09T02:28:46.778Z,14.57
2019-01-09T02:31:13.478Z,13.53
2019-01-09T02:33:41.989Z,12.95
2019-01-09T02:36:13.760Z,13.20
2019-01-09T02:38:37.689Z,11.73
2019-01-09T02:41:04.443Z,14.17
2019-01-09T02:43:31.371Z,14.28
2019-01-09T02:45:57.966Z,13.07
2019-01-09T02:48:24.939Z,11.43
2019-01-09T02:50:54.321Z,14.47
2019-01-09T02:53:20.915Z,13.93
2019-01-09T02:55:47.543Z,15.23
2019-01-09T02:58:14.919Z,11.60
2019-01-09T03:00:42.014Z,13.67
2019-01-09T03:03:08.722Z,11.87
2019-01-09T03:05:35.740Z,11.17
2019-01-09T03:08:02.618Z,12.00
2019-01-09T03:10:29.507Z,11.50
2019-01-09T03:12:57.021Z,9.83
2019-01-09T03:15:23.693Z,9.20
2019-01-09T03:17:50.323Z,9.97
2019-01-09T03:20:18.377Z,12.07
2019-01-09T03:22:45.313Z,10.03
2019-01-09T03:25:12.223Z,10.00
2019-01-09T03:27:38.823Z,11.93
2019-01-09T03:30:05.737Z,10.93
2019-01-09T03:32:32.549Z,11.27
2019-01-09T03:34:59.173Z,12.80
2019-01-09T03:37:25.894Z,11.90
2019-01-09T03:39:53.120Z,12.43
2019-01-09T03:42:20.800Z,13.03
2019-01-09T03:44:47.771Z,12.73
2019-01-09T03:47:14.756Z,10.73
2019-01-09T03:49:42.612Z,12.28
2019-01-09T03:52:09.195Z,11.73
2019-01-09T03:54:35.808Z,11.17
2019-01-09T03:57:03.248Z,13.27
2019-01-09T03:59:30.065Z,10.97
2019-01-09T04:01:57.303Z,10.53
2019-01-09T04:04:24.289Z,10.43
2019-01-09T04:06:51.100Z,11.70
2019-01-09T04:09:20.638Z,11.88
2019-01-09T04:11:47.761Z,11.43
2019-01-09T04:14:14.369Z,10.83
2019-01-09T04:16:42.573Z,9.83
2019-01-09T04:19:09.449Z,11.13
2019-01-09T04:21:36.414Z,10.53
2019-01-09T04:24:03.670Z,9.00
2019-01-09T04:26:30.528Z,11.33
2019-01-09T04:28:57.406Z,9.75
2019-01-09T04:31:24.291Z,8.43
2019-01-09T04:33:52.108Z,9.47
2019-01-09T04:36:19.032Z,10.10
2019-01-09T04:38:46.405Z,11.27
2019-01-09T04:41:14.148Z,12.53
2019-01-09T04:43:42.350Z,10.90
2019-01-09T04:46:09.117Z,9.47
2019-01-09T04:48:37.091Z,9.40
2019-01-09T04:51:04.518Z,8.77
2019-01-09T04:53:31.245Z,8.73
2019-01-09T04:55:59.004Z,9.83
2019-01-09T04:58:26.313Z,9.50
2019-01-09T05:00:54.039Z,10.03
2019-01-09T05:03:21.577Z,10.25
2019-01-09T05:05:50.390Z,12.20
2019-01-09T05:08:19.097Z,10.90
2019-01-09T05:10:46.851Z,12.13
2019-01-09T05:13:13.789Z,12.30
2019-01-09T05:15:42.612Z,11.87
2019-01-09T05:18:11.539Z,11.53
2019-01-09T05:20:39.258Z,10.93
2019-01-09T05:23:06.782Z,10.63
2019-01-09T05:25:34.139Z,9.07
2019-01-09T05:28:01.114Z,9.87
2019-01-09T05:30:31.536Z,10.50
2019-01-09T05:33:02.166Z,9.67
2019-01-09T05:35:28.869Z,9.17
2019-01-09T05:37:55.925Z,9.83
2019-01-09T05:40:24.246Z,10.53
2019-01-09T05:45:38.878Z,9.93
2019-01-09T05:48:07.373Z,10.37
2019-01-09T05:50:35.458Z,10.27
2019-01-09T05:53:16.891Z,8.73
2019-01-09T05:55:45.258Z,8.87
2019-01-09T05:58:15.415Z,8.43
2019-01-09T06:00:47.264Z,9.13
2019-01-09T06:03:16.027Z,8.10
2019-01-09T06:05:43.559Z,9.00
2019-01-09T06:10:59.870Z,8.13
2019-01-09T06:13:27.760Z,9.70
2019-01-09T06:15:55.443Z,9.80
2019-01-09T06:18:22.113Z,9.40
2019-01-09T06:20:49.238Z,9.60
2019-01-09T06:23:20.314Z,9.60
2019-01-09T06:25:49.376Z,8.23
2019-01-09T06:28:17.332Z,9.00
2019-01-09T06:30:44.336Z,7.60
2019-01-09T06:33:11.230Z,9.47
2019-01-09T06:35:38.437Z,9.90
2019-01-09T06:38:05.381Z,8.47
2019-01-09T06:40:32.266Z,8.53
2019-01-09T06:42:59.085Z,7.83
2019-01-09T06:45:25.838Z,8.87
2019-01-09T06:47:59.842Z,10.10
2019-01-09T06:50:26.767Z,8.23
2019-01-09T06:52:53.648Z,10.00
2019-01-09T06:55:22.045Z,10.77
2019-01-09T06:57:49.776Z,9.70
2019-01-09T07:00:18.931Z,9.68
2019-01-09T07:02:47.318Z,10.16
2019-01-09T07:05:15.729Z,9.10
2019-01-09T07:07:42.407Z,10.53
2019-01-09T07:10:10.832Z,11.27
2019-01-09T07:12:39.094Z,9.60
2019-01-09T07:15:11.434Z,8.93
2019-01-09T07:17:34.416Z,9.10
2019-01-09T07:20:01.943Z,12.53
2019-01-09T07:22:29.583Z,14.35
2019-01-09T07:24:56.198Z,14.47
2019-01-09T07:27:23.095Z,10.07
2019-01-09T07:29:50.003Z,11.45
2019-01-09T07:32:18.720Z,11.45
2019-01-09T07:34:45.627Z,10.83
2019-01-09T07:37:13.036Z,9.27
2019-01-09T07:39:39.691Z,12.67
2019-01-09T07:42:06.373Z,11.30
2019-01-09T07:44:33.607Z,11.47
2019-01-09T07:47:02.768Z,12.97
2019-01-09T07:49:30.027Z,13.00
2019-01-09T07:51:56.681Z,10.63
2019-01-09T07:54:23.652Z,10.10
2019-01-09T07:56:50.562Z,12.63
2019-01-09T07:59:18.410Z,9.30
2019-01-09T08:01:45.246Z,8.53
2019-01-09T08:04:12.821Z,8.58
2019-01-09T08:06:40.243Z,9.87
2019-01-09T08:09:09.491Z,9.13
2019-01-09T08:11:36.287Z,8.40
2019-01-09T08:14:04.835Z,8.78
2019-01-09T08:16:31.692Z,7.63
2019-01-09T08:19:00.951Z,7.65
2019-01-09T08:21:32.382Z,8.67
2019-01-09T08:23:59.770Z,9.83
2019-01-09T08:26:27.692Z,10.28
2019-01-09T08:28:55.184Z,8.60
2019-01-09T08:31:22.637Z,9.73
2019-01-09T08:33:50.492Z,9.58
2019-01-09T08:36:18.704Z,10.27
2019-01-09T08:38:45.654Z,10.40
2019-01-09T08:44:04.378Z,10.23
2019-01-09T08:46:28.937Z,9.80
2019-01-09T08:48:56.435Z,10.33
2019-01-09T08:51:24.867Z,10.10
2019-01-09T08:53:52.297Z,10.32
2019-01-09T08:56:18.910Z,9.77
2019-01-09T08:58:52.608Z,9.70
2019-01-09T09:01:21.232Z,8.63
2019-01-09T09:03:48.221Z,10.03
2019-01-09T09:06:16.620Z,9.73
2019-01-09T09:08:44.580Z,11.77
2019-01-09T09:11:11.463Z,9.23
2019-01-09T09:13:38.361Z,10.73
2019-01-09T09:16:08.998Z,11.30
2019-01-09T09:18:37.724Z,10.60
2019-01-09T09:21:05.934Z,9.33
2019-01-09T09:23:39.965Z,7.10
2019-01-09T09:26:08.567Z,10.37
2019-01-09T09:28:35.182Z,10.27
2019-01-09T09:31:01.796Z,8.83
2019-01-09T09:33:28.602Z,8.07
2019-01-09T09:35:56.590Z,10.63
2019-01-09T09:38:23.218Z,7.90
2019-01-09T09:40:49.856Z,7.50
2019-01-09T09:43:18.012Z,7.50
2019-01-09T09:45:46.188Z,8.63
2019-01-09T09:48:12.864Z,8.23
2019-01-09T09:50:39.692Z,7.73
2019-01-09T09:53:06.343Z,8.00
2019-01-09T09:55:35.301Z,7.50
2019-01-09T09:58:05.774Z,8.80
2019-01-09T10:00:30.269Z,8.10
2019-01-09T10:02:57.035Z,6.60
2019-01-09T10:05:24.735Z,8.77
2019-01-09T10:07:51.452Z,7.80
2019-01-09T10:10:18.186Z,7.40
2019-01-09T10:12:44.846Z,6.37
2019-01-09T10:15:13.953Z,6.12
2019-01-09T10:17:40.978Z,6.63
2019-01-09T10:20:07.875Z,6.73
2019-01-09T10:22:34.522Z,6.90
2019-01-09T10:25:01.138Z,7.90
2019-01-09T10:27:27.957Z,7.40
2019-01-09T10:29:55.023Z,7.77
2019-01-09T10:32:21.886Z,7.97
2019-01-09T10:34:48.470Z,7.43
2019-01-09T10:37:15.133Z,7.00
2019-01-09T10:39:41.964Z,7.23
2019-01-09T10:42:08.848Z,6.03
2019-01-09T10:44:35.457Z,5.13
2019-01-09T10:47:02.273Z,4.80
2019-01-09T10:49:28.989Z,5.10
2019-01-09T10:51:55.604Z,5.77
2019-01-09T10:54:22.219Z,4.87
2019-01-09T10:56:48.995Z,4.70
2019-01-09T10:59:15.667Z,4.40
2019-01-09T11:01:42.312Z,3.87
2019-01-09T11:04:09.170Z,4.37
2019-01-09T11:06:36.781Z,4.23
2019-01-09T11:09:03.411Z,4.33
2019-01-09T11:11:30.144Z,5.40
2019-01-09T11:13:56.772Z,4.80
2019-01-09T11:16:26.156Z,4.37
2019-01-09T11:18:52.736Z,4.12
2019-01-09T11:21:19.381Z,2.77
2019-01-09T11:23:46.327Z,3.10
2019-01-09T11:26:15.764Z,4.80
2019-01-09T11:28:42.413Z,4.40
2019-01-09T11:31:09.273Z,5.60
2019-01-09T11:33:35.878Z,2.80
2019-01-09T11:36:04.884Z,3.23
2019-01-09T11:38:31.463Z,2.60
2019-01-09T11:40:58.319Z,2.20
2019-01-09T11:43:24.932Z,1.80
2019-01-09T11:45:51.710Z,3.30
2019-01-09T11:48:18.851Z,3.30
2019-01-09T11:50:45.460Z,3.40
2019-01-09T11:53:12.341Z,3.40
2019-01-09T11:55:38.973Z,3.20
2019-01-09T11:58:05.609Z,2.17
2019-01-09T12:00:32.482Z,2.47
2019-01-09T12:02:59.086Z,1.73
2019-01-09T12:05:25.702Z,2.57
2019-01-09T12:07:52.883Z,2.00
2019-01-09T12:10:19.641Z,1.90
2019-01-09T12:12:46.271Z,1.20
2019-01-09T12:15:13.042Z,1.60
2019-01-09T12:17:39.696Z,1.87
2019-01-09T12:20:06.351Z,1.60
2019-01-09T12:22:32.952Z,1.80
2019-01-09T12:24:59.787Z,1.70
2019-01-09T12:27:27.620Z,1.30
2019-01-09T12:29:54.243Z,1.10
2019-01-09T12:32:20.890Z,1.30
2019-01-09T12:34:49.206Z,1.32
2019-01-09T12:37:16.965Z,1.30
2019-01-09T12:39:43.544Z,1.50
2019-01-09T12:42:10.200Z,1.30
2019-01-09T12:44:36.998Z,1.50
2019-01-09T12:47:06.304Z,1.40
2019-01-09T12:49:33.319Z,1.57
2019-01-09T12:52:00.004Z,1.67
2019-01-09T12:54:26.624Z,1.60
2019-01-09T12:56:55.691Z,1.63
2019-01-09T12:59:22.305Z,1.50
2019-01-09T13:01:49.641Z,1.70
2019-01-09T13:04:16.260Z,1.50
2019-01-09T13:06:46.205Z,1.50
2019-01-09T13:09:21.938Z,1.30
2019-01-09T13:11:41.505Z,1.23
2019-01-09T13:14:08.200Z,1.17
2019-01-09T13:16:34.793Z,1.63
2019-01-09T13:19:01.463Z,1.07
2019-01-09T13:21:28.204Z,0.90
2019-01-09T13:23:54.823Z,1.00
2019-01-09T13:26:21.452Z,1.00
2019-01-09T13:28:49.616Z,1.05
2019-01-09T13:31:16.312Z,1.00
2019-01-09T13:33:42.937Z,0.87
2019-01-09T13:36:09.545Z,0.90
2019-01-09T13:38:36.468Z,0.80
2019-01-09T13:41:03.501Z,0.97
2019-01-09T13:43:30.445Z,0.93
2019-01-09T13:45:57.067Z,1.00
2019-01-09T13:48:23.710Z,0.90
2019-01-09T13:50:50.472Z,0.90
2019-01-09T13:53:18.247Z,0.77
2019-01-09T13:55:44.988Z,0.90
2019-01-09T13:58:16.052Z,1.00
2019-01-09T14:00:42.710Z,0.97
2019-01-09T14:03:09.595Z,0.90
2019-01-09T14:05:36.507Z,0.75
2019-01-09T14:08:05.096Z,0.90
2019-01-09T14:10:31.783Z,1.00
2019-01-09T14:12:58.781Z,0.93
2019-01-09T14:15:25.641Z,0.90
2019-01-09T14:17:54.547Z,0.90
2019-01-09T14:20:21.129Z,0.90
2019-01-09T14:22:47.838Z,0.90
2019-01-09T14:25:14.785Z,1.30
2019-01-09T14:27:43.784Z,1.20
2019-01-09T14:30:10.591Z,0.80
2019-01-09T14:32:37.221Z,0.90
2019-01-09T14:35:03.824Z,0.90
2019-01-09T14:37:33.280Z,1.17
2019-01-09T14:39:59.995Z,1.10
2019-01-09T14:42:26.917Z,0.93
2019-01-09T14:44:53.519Z,0.90
2019-01-09T14:47:20.432Z,1.10
2019-01-09T14:49:46.982Z,1.10
2019-01-09T14:52:13.579Z,1.67
2019-01-09T14:54:40.224Z,1.67
2019-01-09T14:57:07.031Z,1.10
2019-01-09T14:59:34.714Z,1.07
2019-01-09T15:02:01.388Z,1.00
2019-01-09T15:04:28.181Z,0.90
2019-01-09T15:06:54.825Z,1.02
2019-01-09T15:09:21.744Z,1.00
2019-01-09T15:11:48.328Z,0.90
2019-01-09T15:14:15.230Z,0.80
2019-01-09T15:16:41.926Z,0.93
2019-01-09T15:19:08.522Z,0.87
2019-01-09T15:21:35.306Z,0.70
2019-01-09T15:24:08.327Z,0.90
2019-01-09T15:26:30.652Z,0.88
2019-01-09T15:28:57.388Z,1.00
2019-01-09T15:31:23.983Z,0.70
2019-01-09T15:33:50.802Z,1.20
2019-01-09T15:36:17.513Z,1.10
2019-01-09T15:38:51.236Z,0.93
2019-01-09T15:41:15.287Z,1.17
2019-01-09T15:43:41.923Z,1.27
2019-01-09T15:46:08.571Z,0.90
2019-01-09T15:48:35.169Z,0.80
2019-01-09T15:51:01.758Z,0.70
2019-01-09T15:53:28.626Z,0.87
2019-01-09T15:55:55.208Z,0.90
2019-01-09T15:58:23.932Z,6.23
2019-01-09T16:00:51.199Z,4.47
2019-01-09T16:03:17.804Z,12.20
2019-01-09T16:05:45.785Z,2.90
2019-01-09T16:08:12.780Z,1.83
2019-01-09T16:10:39.374Z,1.20
2019-01-09T16:13:05.976Z,1.00
2019-01-09T16:15:32.899Z,1.10
2019-01-09T16:17:59.769Z,1.10
2019-01-09T16:20:26.392Z,2.17
2019-01-09T16:22:53.022Z,1.30
2019-01-09T16:25:21.244Z,1.30
2019-01-09T16:27:48.060Z,1.43
2019-01-09T16:30:15.083Z,1.10
2019-01-09T16:32:41.994Z,1.10
2019-01-09T16:35:08.610Z,1.40
2019-01-09T16:37:35.310Z,1.80
2019-01-09T16:40:02.124Z,1.60
2019-01-09T16:42:28.755Z,1.40
2019-01-09T16:44:55.463Z,1.05
2019-01-09T16:47:22.163Z,1.23
2019-01-09T16:49:48.787Z,1.30
2019-01-09T16:52:15.384Z,1.23
2019-01-09T16:54:42.249Z,1.07
2019-01-09T16:57:08.862Z,1.00
2019-01-09T16:59:36.164Z,1.30
2019-01-09T17:02:02.782Z,1.27
2019-01-09T17:04:29.715Z,1.60
2019-01-09T17:06:56.442Z,2.17
2019-01-09T17:09:26.125Z,1.40
2019-01-09T17:11:52.715Z,1.40
2019-01-09T17:14:19.468Z,2.20
2019-01-09T17:16:46.351Z,1.90
2019-01-09T17:19:14.766Z,2.07
2019-01-09T17:21:41.707Z,2.00
2019-01-09T17:24:08.594Z,1.90
2019-01-09T17:26:36.249Z,1.67
2019-01-09T17:29:04.475Z,1.53
2019-01-09T17:31:31.703Z,1.90
2019-01-09T17:33:58.307Z,2.10
2019-01-09T17:36:24.928Z,2.50
2019-01-09T17:38:52.191Z,2.53
2019-01-09T17:41:18.803Z,2.70
2019-01-09T17:43:45.693Z,3.27
2019-01-09T17:46:12.344Z,4.13
2019-01-09T17:48:38.952Z,3.40
2019-01-09T17:51:05.898Z,3.33
2019-01-09T17:53:32.959Z,3.55
2019-01-09T17:55:59.878Z,3.13
2019-01-09T17:58:26.561Z,3.37
2019-01-09T18:00:53.428Z,3.40
2019-01-09T18:03:20.032Z,3.27
2019-01-09T18:05:46.963Z,3.42
2019-01-09T18:08:13.602Z,3.20
2019-01-09T18:10:49.750Z,2.97
2019-01-09T18:13:09.280Z,3.97
2019-01-09T18:15:36.077Z,3.30
2019-01-09T18:18:02.773Z,3.93
2019-01-09T18:20:38.517Z,3.85
2019-01-09T18:23:05.193Z,3.63
2019-01-09T18:25:32.142Z,3.98
2019-01-09T18:27:58.750Z,3.40
2019-01-09T18:30:27.246Z,4.33
2019-01-09T18:32:54.405Z,3.70
2019-01-09T18:35:23.948Z,4.10
2019-01-09T18:37:52.077Z,4.20
2019-01-09T18:40:22.608Z,3.20
2019-01-09T18:42:56.638Z,3.85
2019-01-09T18:45:24.289Z,4.20
2019-01-09T18:47:50.850Z,4.43
2019-01-09T18:50:18.916Z,4.67
2019-01-09T18:52:45.690Z,6.17
2019-01-09T18:55:12.296Z,6.23
2019-01-09T18:57:38.926Z,5.40
2019-01-09T19:00:08.476Z,5.42
2019-01-09T19:02:35.068Z,5.27
2019-01-09T19:05:01.859Z,5.97
2019-01-09T19:07:29.836Z,5.37
2019-01-09T19:10:05.510Z,6.58
2019-01-09T19:12:32.217Z,6.93
2019-01-09T19:14:58.985Z,7.70
2019-01-09T19:17:25.842Z,6.60
2019-01-09T19:19:53.362Z,7.22
2019-01-09T19:22:20.001Z,7.77
2019-01-09T19:24:46.693Z,7.47
2019-01-09T19:27:13.328Z,6.97
2019-01-09T19:29:40.025Z,6.77
2019-01-09T19:32:06.627Z,7.83
2019-01-09T19:34:33.402Z,7.12
2019-01-09T19:37:00.951Z,7.67
2019-01-09T19:39:27.619Z,7.23
2019-01-09T19:41:54.524Z,7.83
2019-01-09T19:44:21.145Z,9.20
2019-01-09T19:46:47.692Z,7.07
2019-01-09T19:49:14.358Z,7.90
2019-01-09T19:51:41.224Z,7.78
2019-01-09T19:54:07.848Z,9.20
2019-01-09T19:56:34.818Z,8.08
2019-01-09T19:59:01.692Z,9.03
2019-01-09T20:01:31.205Z,9.63
2019-01-09T20:03:57.820Z,9.10
2019-01-09T20:06:24.692Z,8.68
2019-01-09T20:08:51.293Z,7.40
2019-01-09T20:11:25.925Z,8.10
2019-01-09T20:13:46.266Z,7.30
2019-01-09T20:16:12.931Z,6.77
2019-01-09T20:18:39.555Z,12.57
2019-01-09T20:21:07.023Z,13.97
2019-01-09T20:23:33.618Z,15.37
2019-01-09T20:26:01.361Z,11.43
2019-01-09T20:28:28.139Z,10.03
2019-01-09T20:30:56.629Z,14.47
2019-01-09T20:33:23.262Z,10.90
2019-01-09T20:35:50.059Z,11.80
2019-01-09T20:38:16.692Z,9.17
2019-01-09T20:40:52.698Z,7.50
2019-01-09T20:43:17.445Z,7.27
2019-01-09T20:45:44.185Z,6.87
2019-01-09T20:48:10.802Z,6.37
2019-01-09T20:50:37.619Z,6.97
2019-01-09T20:53:05.700Z,6.17
2019-01-09T20:55:32.373Z,6.77
2019-01-09T20:57:59.451Z,6.67
2019-01-09T21:00:26.270Z,7.17
2019-01-09T21:02:53.285Z,7.37
2019-01-09T21:05:19.841Z,6.63
2019-01-09T21:07:46.523Z,6.70
2019-01-09T21:10:13.413Z,7.20
2019-01-09T21:12:40.111Z,6.58
2019-01-09T21:15:06.697Z,6.93
2019-01-09T21:17:33.498Z,6.43
2019-01-09T21:20:01.841Z,6.72
2019-01-09T21:22:28.525Z,6.80
2019-01-09T21:24:55.461Z,6.53
2019-01-09T21:27:22.038Z,7.37
2019-01-09T21:29:48.695Z,7.83
2019-01-09T21:32:16.540Z,7.03
2019-01-09T21:34:44.820Z,6.47
2019-01-09T21:37:11.734Z,6.87
2019-01-09T21:39:38.650Z,6.58
2019-01-09T21:42:07.379Z,6.63
2019-01-09T21:44:34.907Z,6.87
2019-01-09T21:47:02.264Z,6.50
2019-01-09T21:49:28.859Z,8.23
2019-01-09T21:52:02.415Z,6.80
2019-01-09T21:54:26.103Z,7.67
2019-01-09T21:56:52.807Z,8.03
2019-01-09T21:59:19.459Z,9.47
2019-01-09T22:01:46.088Z,8.67
2019-01-09T22:04:12.893Z,7.83
2019-01-09T22:06:40.076Z,7.67
2019-01-09T22:09:07.753Z,7.73
2019-01-09T22:11:35.616Z,8.07
2019-01-09T22:14:02.447Z,8.77
2019-01-09T22:16:29.044Z,7.97
2019-01-09T22:18:55.918Z,8.28
2019-01-09T22:21:24.563Z,8.13
2019-01-09T22:23:51.198Z,8.27
2019-01-09T22:26:18.171Z,9.00
2019-01-09T22:28:46.065Z,8.50
2019-01-09T22:31:13.859Z,8.90
2019-01-09T22:33:40.629Z,8.73
2019-01-09T22:36:07.189Z,10.50
2019-01-09T22:38:33.917Z,9.33
2019-01-09T22:41:01.775Z,9.53
2019-01-09T22:43:29.545Z,9.10
2019-01-09T22:45:56.312Z,8.57
2019-01-09T22:48:23.176Z,9.50
2019-01-09T22:50:49.819Z,8.93
2019-01-09T22:53:16.531Z,9.63
2019-01-09T22:55:43.426Z,8.97
2019-01-09T22:58:11.316Z,9.60
2019-01-09T23:00:37.951Z,9.20
2019-01-09T23:03:05.115Z,8.27
2019-01-09T23:05:32.959Z,8.75
2019-01-09T23:07:59.655Z,8.20
2019-01-09T23:10:26.630Z,8.20
2019-01-09T23:12:54.038Z,7.15
2019-01-09T23:15:20.892Z,8.67
2019-01-09T23:17:47.660Z,8.30
2019-01-09T23:20:14.277Z,8.03
2019-01-09T23:22:43.540Z,7.43
2019-01-09T23:25:10.116Z,7.30
2019-01-09T23:27:37.715Z,8.23
2019-01-09T23:30:04.368Z,7.43
2019-01-09T23:32:49.599Z,6.80
2019-01-09T23:35:16.208Z,6.70
2019-01-09T23:37:42.806Z,6.80
2019-01-09T23:40:09.456Z,6.13
2019-01-09T23:42:38.163Z,5.90
2019-01-09T23:45:05.036Z,6.60
2019-01-09T23:47:35.259Z,6.37
2019-01-09T23:50:03.321Z,6.40
2019-01-09T23:52:34.568Z,6.00
2019-01-09T23:54:58.310Z,6.13
2019-01-09T23:57:24.943Z,5.87
2019-01-09T23:59:51.570Z,6.60
